Araguaina Airport


Codes: SWGN/AUX
Name: Araguaina Airport
City: Araguaina
Country: Brazil
Elevation: 771 ft.

Photos at Araguaina Airport


   Photos courtesy of SpottingLog. You can add your own sightings and photos by signing up for a free trial today.



No photos found.

Weather at Araguaina Airport


Time (UTC)DescriptionTempratureWindCloud coverageVisibilityPressureHumidity
25-Jun-2024 15:00Scattered Clouds31°C7 mph, E28%10000m1014hPa40%
25-Jun-2024 18:00Scattered Clouds34°C4 mph, E35%10000m1012hPa31%
25-Jun-2024 21:00Broken Clouds31°C4 mph, SW66%10000m1010hPa33%
26-Jun-2024 00:00Scattered Clouds27°C2 mph, S45%10000m1012hPa40%
26-Jun-2024 03:00Scattered Clouds27°C4 mph, S28%10000m1013hPa39%
26-Jun-2024 06:00Few Clouds23°C2 mph, E24%10000m1012hPa48%
26-Jun-2024 09:00Few Clouds22°C2 mph, SE19%10000m1013hPa52%
26-Jun-2024 12:00Few Clouds30°C2 mph, E15%10000m1015hPa35%
26-Jun-2024 15:00Few Clouds36°C4 mph, NE21%10000m1013hPa27%
26-Jun-2024 18:00Few Clouds38°C0 mph, NE14%10000m1009hPa22%
26-Jun-2024 21:00Scattered Clouds32°C2 mph, S39%10000m1009hPa31%
27-Jun-2024 00:00Broken Clouds30°C0 mph, NE70%10000m1012hPa34%
27-Jun-2024 03:00Scattered Clouds26°C2 mph, NW38%10000m1012hPa49%
27-Jun-2024 06:00Scattered Clouds26°C4 mph, NW38%10000m1011hPa58%
27-Jun-2024 09:00Few Clouds22°C2 mph, S17%10000m1012hPa70%
27-Jun-2024 12:00Few Clouds30°C2 mph, NE15%10000m1014hPa46%
27-Jun-2024 15:00Clear Sky36°C4 mph, N5%10000m1012hPa29%
27-Jun-2024 18:00Few Clouds37°C4 mph, NE19%10000m1008hPa25%
27-Jun-2024 21:00Overcast Clouds32°C2 mph, N94%10000m1008hPa34%
28-Jun-2024 00:00Overcast Clouds29°C4 mph, NW92%10000m1010hPa39%
28-Jun-2024 03:00Scattered Clouds27°C4 mph, NE46%10000m1011hPa48%
28-Jun-2024 06:00Scattered Clouds24°C4 mph, N36%10000m1010hPa61%
28-Jun-2024 09:00Clear Sky23°C4 mph, N2%10000m1011hPa70%
28-Jun-2024 12:00Clear Sky29°C7 mph, N1%10000m1013hPa54%
28-Jun-2024 15:00Clear Sky35°C4 mph, N0%10000m1011hPa37%
28-Jun-2024 18:00Scattered Clouds31°C4 mph, NW44%10000m1009hPa44%
28-Jun-2024 21:00Scattered Clouds28°C4 mph, W40%10000m1010hPa54%
29-Jun-2024 00:00Light Rain25°C2 mph, SW26%10000m1012hPa66%
29-Jun-2024 03:00Scattered Clouds25°C4 mph, N32%10000m1012hPa66%
29-Jun-2024 06:00Broken Clouds25°C2 mph, N62%10000m1011hPa67%
29-Jun-2024 09:00Broken Clouds23°C4 mph, N57%10000m1012hPa79%
29-Jun-2024 12:00Scattered Clouds30°C4 mph, N37%10000m1014hPa54%
29-Jun-2024 15:00Clear Sky37°C2 mph, NE0%10000m1013hPa34%
29-Jun-2024 18:00Scattered Clouds34°C9 mph, NE34%10000m1010hPa39%
29-Jun-2024 21:00Broken Clouds30°C4 mph, N80%10000m1010hPa53%
30-Jun-2024 00:00Broken Clouds26°C4 mph, NW53%10000m1012hPa64%
30-Jun-2024 03:00Broken Clouds25°C4 mph, NW55%10000m1013hPa66%
30-Jun-2024 06:00Light Rain23°C4 mph, N63%10000m1012hPa78%
30-Jun-2024 09:00Light Rain22°C4 mph, N29%10000m1012hPa91%
30-Jun-2024 12:00Few Clouds28°C7 mph, N16%10000m1014hPa66%